createdAt,value
2022-11-05T00:01:54.024Z,5.78
2022-11-05T00:04:40.524Z,5.82
2022-11-05T00:07:35.416Z,5.83
2022-11-05T00:10:06.723Z,5.87
2022-11-05T00:12:53.452Z,5.90
2022-11-05T00:15:39.898Z,5.90
2022-11-05T00:18:06.698Z,5.91
2022-11-05T00:20:33.300Z,5.93
2022-11-05T00:23:22.013Z,5.96
2022-11-05T00:26:06.660Z,5.95
2022-11-05T00:28:35.028Z,6.00
2022-11-05T00:31:06.449Z,6.02
2022-11-05T00:33:33.072Z,6.04
2022-11-05T00:35:59.657Z,6.05
2022-11-05T00:38:26.260Z,6.07
2022-11-05T00:40:52.806Z,6.09
2022-11-05T00:43:39.245Z,6.10
2022-11-05T00:46:05.968Z,6.12
2022-11-05T00:48:52.449Z,6.13
2022-11-05T00:51:19.162Z,6.15
2022-11-05T00:53:45.763Z,6.17
2022-11-05T00:56:12.331Z,6.21
2022-11-05T00:58:38.877Z,6.22
2022-11-05T01:01:05.739Z,6.23
2022-11-05T01:03:36.772Z,6.26
2022-11-05T01:08:45.336Z,6.28
2022-11-05T01:11:36.062Z,6.29
2022-11-05T01:14:05.226Z,6.31
2022-11-05T01:16:32.779Z,6.30
2022-11-05T01:19:01.179Z,6.33
2022-11-05T01:21:27.754Z,6.34
2022-11-05T01:23:54.604Z,6.34
2022-11-05T01:26:21.137Z,6.35
2022-11-05T01:28:52.137Z,6.37
2022-11-05T01:31:18.849Z,6.38
2022-11-05T01:33:45.441Z,6.39
2022-11-05T01:36:12.014Z,6.40
2022-11-05T01:38:38.568Z,6.41
2022-11-05T01:41:05.765Z,6.42
2022-11-05T01:43:51.585Z,6.40
2022-11-05T01:46:24.021Z,6.42
2022-11-05T01:48:55.204Z,6.43
2022-11-05T01:51:27.462Z,6.42
2022-11-05T01:54:00.410Z,6.42
2022-11-05T01:56:33.540Z,6.42
2022-11-05T01:59:05.501Z,6.42
2022-11-05T02:01:33.112Z,6.40
2022-11-05T02:04:03.207Z,6.42
2022-11-05T02:06:32.860Z,6.42
2022-11-05T02:09:11.956Z,6.42
2022-11-05T02:11:38.620Z,6.43
2022-11-05T02:14:05.796Z,6.42
2022-11-05T02:22:39.699Z,6.41
2022-11-05T02:28:45.887Z,6.40
2022-11-05T02:31:25.277Z,6.42
2022-11-05T02:36:46.518Z,6.79
2022-11-05T02:47:45.818Z,6.54
2022-11-05T02:50:25.181Z,6.58
2022-11-05T02:55:50.299Z,6.59
2022-11-05T02:58:16.862Z,6.63
2022-11-05T03:01:00.416Z,6.62
2022-11-05T03:28:56.996Z,6.95
2022-11-05T03:31:26.880Z,6.98
2022-11-05T03:33:55.264Z,6.98
2022-11-05T03:36:27.143Z,6.99
2022-11-05T03:38:56.381Z,6.97
2022-11-05T03:41:25.386Z,6.96
2022-11-05T03:43:56.281Z,6.96
2022-11-05T03:46:35.612Z,6.93
2022-11-05T03:49:04.719Z,6.93
2022-11-05T03:51:42.308Z,6.93
2022-11-05T03:54:10.272Z,6.93
2022-11-05T03:57:03.762Z,6.88
2022-11-05T03:59:38.245Z,6.92
2022-11-05T04:02:05.125Z,6.90
2022-11-05T04:04:31.893Z,6.91
2022-11-05T04:07:18.360Z,6.91
2022-11-05T04:10:04.789Z,6.91
2022-11-05T04:12:51.225Z,6.91
2022-11-05T04:15:17.941Z,6.91
2022-11-05T04:17:44.508Z,6.92
2022-11-05T04:20:31.352Z,6.94
2022-11-05T04:23:19.429Z,6.96
2022-11-05T04:25:46.021Z,6.98
2022-11-05T04:28:13.636Z,7.01
2022-11-05T04:30:40.577Z,7.05
2022-11-05T04:33:14.813Z,7.09
2022-11-05T04:38:19.739Z,7.18
2022-11-05T04:40:47.727Z,7.23
2022-11-05T04:43:18.488Z,7.29
2022-11-05T04:45:46.166Z,7.34
2022-11-05T04:48:13.224Z,7.37
2022-11-05T04:50:40.056Z,7.42
2022-11-05T04:53:06.759Z,7.48
2022-11-05T04:55:33.313Z,7.52
2022-11-05T04:57:59.885Z,7.56
2022-11-05T05:00:26.501Z,7.58
2022-11-05T05:02:53.039Z,7.63
2022-11-05T05:05:19.700Z,7.67
2022-11-05T05:07:46.246Z,7.68
2022-11-05T05:10:13.237Z,7.72
2022-11-05T05:12:39.871Z,7.74
2022-11-05T05:15:06.893Z,7.75
2022-11-05T05:17:33.558Z,7.76
2022-11-05T05:20:20.032Z,7.76
2022-11-05T05:22:54.039Z,7.76
2022-11-05T05:25:21.444Z,7.76
2022-11-05T05:27:47.959Z,7.77
2022-11-05T05:30:14.589Z,7.77
2022-11-05T05:32:41.240Z,7.79
2022-11-05T05:35:08.241Z,7.81
2022-11-05T05:37:34.767Z,7.81
2022-11-05T05:40:01.346Z,7.82
2022-11-05T05:42:27.859Z,7.86
2022-11-05T05:44:54.396Z,7.88
2022-11-05T05:47:21.023Z,7.91
2022-11-05T05:49:47.524Z,7.93
2022-11-05T05:52:14.053Z,7.95
2022-11-05T05:54:42.927Z,8.00
2022-11-05T05:57:10.034Z,8.02
2022-11-05T05:59:36.618Z,8.05
2022-11-05T06:02:03.307Z,8.07
2022-11-05T06:04:29.971Z,8.10
2022-11-05T06:06:56.580Z,8.14
2022-11-05T06:09:23.149Z,8.17
2022-11-05T06:11:49.683Z,8.19
2022-11-05T06:14:16.246Z,8.20
2022-11-05T06:16:42.776Z,8.25
2022-11-05T06:19:09.333Z,8.27
2022-11-05T06:21:35.961Z,8.29
2022-11-05T06:24:03.274Z,8.30
2022-11-05T06:26:30.530Z,8.32
2022-11-05T06:28:57.272Z,8.36
2022-11-05T06:31:24.438Z,8.38
2022-11-05T06:33:51.087Z,8.40
2022-11-05T06:36:19.068Z,8.42
2022-11-05T06:38:46.196Z,8.44
2022-11-05T06:41:13.023Z,8.46
2022-11-05T06:43:39.887Z,8.47
2022-11-05T06:46:06.811Z,8.52
2022-11-05T06:48:33.875Z,8.54
2022-11-05T06:51:00.461Z,8.56
2022-11-05T06:53:27.252Z,8.57
2022-11-05T06:55:53.854Z,8.59
2022-11-05T06:58:20.471Z,8.62
2022-11-05T07:00:47.125Z,8.63
2022-11-05T07:03:14.105Z,8.64
2022-11-05T07:05:45.206Z,8.66
2022-11-05T07:08:11.981Z,8.67
2022-11-05T07:10:38.629Z,8.66
2022-11-05T07:13:08.499Z,8.69
2022-11-05T07:15:35.632Z,8.61
2022-11-05T07:18:02.476Z,8.66
2022-11-05T07:20:33.531Z,8.68
2022-11-05T07:25:38.672Z,8.71
2022-11-05T07:28:05.856Z,8.72
2022-11-05T07:30:33.674Z,8.76
2022-11-05T07:33:00.301Z,8.78
2022-11-05T07:35:27.354Z,8.82
2022-11-05T07:37:54.830Z,8.85
2022-11-05T07:40:23.316Z,8.86
2022-11-05T07:42:53.105Z,8.90
2022-11-05T07:45:19.822Z,8.93
2022-11-05T07:47:49.104Z,8.95
2022-11-05T07:50:17.404Z,8.98
2022-11-05T07:52:44.671Z,9.00
2022-11-05T07:55:13.210Z,9.04
2022-11-05T07:57:42.520Z,9.06
2022-11-05T08:00:12.643Z,9.08
2022-11-05T08:02:39.557Z,9.08
2022-11-05T08:05:06.647Z,9.12
2022-11-05T08:07:33.390Z,9.12
2022-11-05T08:09:59.966Z,9.15
2022-11-05T08:12:26.558Z,9.17
2022-11-05T08:14:53.114Z,9.16
2022-11-05T08:17:19.704Z,9.18
2022-11-05T08:19:46.268Z,9.21
2022-11-05T08:22:12.831Z,9.21
2022-11-05T08:24:39.443Z,9.21
2022-11-05T08:27:05.974Z,9.25
2022-11-05T08:29:32.516Z,9.25
2022-11-05T08:31:59.043Z,9.26
2022-11-05T08:34:25.620Z,9.29
2022-11-05T08:36:52.157Z,9.30
2022-11-05T08:39:19.853Z,9.32
2022-11-05T08:41:47.211Z,9.32
2022-11-05T08:44:13.746Z,9.36
2022-11-05T08:46:41.742Z,9.36
2022-11-05T08:49:08.575Z,9.38
2022-11-05T08:51:35.153Z,9.42
2022-11-05T08:54:01.724Z,9.44
2022-11-05T08:56:28.278Z,9.46
2022-11-05T08:58:54.903Z,9.49
2022-11-05T09:01:21.572Z,9.51
2022-11-05T09:03:51.828Z,9.58
2022-11-05T09:06:20.315Z,9.50
2022-11-05T09:08:46.975Z,9.60
2022-11-05T09:11:13.562Z,9.63
2022-11-05T09:13:40.308Z,9.63
2022-11-05T09:16:07.146Z,9.65
2022-11-05T09:18:33.808Z,9.68
2022-11-05T09:21:00.394Z,9.69
2022-11-05T09:23:27.180Z,9.71
2022-11-05T09:25:53.745Z,9.74
2022-11-05T09:28:22.354Z,9.79
2022-11-05T09:30:51.700Z,9.83
2022-11-05T09:33:20.919Z,9.86
2022-11-05T09:35:47.688Z,9.90
2022-11-05T09:38:14.773Z,9.95
2022-11-05T09:46:20.241Z,9.99
2022-11-05T09:48:55.254Z,10.01
2022-11-05T09:51:24.075Z,10.03
2022-11-05T09:53:52.581Z,10.02
2022-11-05T09:56:26.323Z,10.05
2022-11-05T10:01:36.377Z,10.10
2022-11-05T10:04:12.712Z,10.13
2022-11-05T10:06:46.665Z,10.12
2022-11-05T10:11:59.159Z,10.21
2022-11-05T10:14:33.717Z,10.26
2022-11-05T10:17:08.814Z,10.33
2022-11-05T10:19:44.308Z,10.34
2022-11-05T10:22:16.484Z,10.44
2022-11-05T10:24:47.154Z,10.54
2022-11-05T10:27:19.065Z,10.56
2022-11-05T10:29:45.895Z,10.58
2022-11-05T10:32:21.733Z,10.65
2022-11-05T10:34:49.999Z,10.70
2022-11-05T10:37:17.117Z,10.77
2022-11-05T10:39:43.795Z,10.86
2022-11-05T10:42:38.573Z,10.89
2022-11-05T10:45:33.609Z,10.94
2022-11-05T10:50:57.668Z,11.00
2022-11-05T10:53:30.081Z,11.06
2022-11-05T10:55:58.672Z,11.03
2022-11-05T10:58:29.875Z,11.04
2022-11-05T11:03:37.638Z,11.07
2022-11-05T11:06:15.654Z,11.10
2022-11-05T11:08:45.135Z,11.07
2022-11-05T11:11:24.820Z,11.09
2022-11-05T11:14:02.346Z,11.09
2022-11-05T11:16:35.305Z,11.13
2022-11-05T11:19:03.270Z,11.15
2022-11-05T11:21:32.680Z,11.15
2022-11-05T11:24:03.025Z,11.13
2022-11-05T11:26:33.628Z,11.18
2022-11-05T11:29:07.245Z,11.19
2022-11-05T11:31:38.540Z,11.17
2022-11-05T11:34:11.992Z,11.23
2022-11-05T11:36:44.759Z,11.24
2022-11-05T11:39:17.399Z,11.28
2022-11-05T11:41:46.328Z,11.30
2022-11-05T11:44:17.905Z,11.34
2022-11-05T11:46:49.718Z,11.41
2022-11-05T11:49:53.016Z,11.36
2022-11-05T11:52:37.394Z,11.45
2022-11-05T12:00:27.140Z,11.70
2022-11-05T12:09:06.703Z,11.75
2022-11-05T12:12:11.054Z,11.87
2022-11-05T12:25:52.830Z,12.05
2022-11-05T12:31:16.387Z,12.03
2022-11-05T12:34:14.815Z,12.00
2022-11-05T12:36:59.389Z,12.02
2022-11-05T12:42:09.970Z,12.36
2022-11-05T12:50:12.607Z,12.10
2022-11-05T12:55:45.526Z,12.01
2022-11-05T12:58:23.366Z,12.02
2022-11-05T13:00:57.187Z,12.03
2022-11-05T13:11:51.380Z,12.08
2022-11-05T13:14:22.377Z,12.13
2022-11-05T13:22:14.989Z,12.13
2022-11-05T13:24:49.128Z,12.16
2022-11-05T13:27:41.288Z,12.13
2022-11-05T13:30:15.672Z,12.15
2022-11-05T13:32:48.292Z,12.19
2022-11-05T13:35:21.281Z,12.21
2022-11-05T13:38:13.209Z,12.21
2022-11-05T13:46:34.240Z,12.19
2022-11-05T13:51:49.526Z,12.25
2022-11-05T14:02:42.264Z,12.31
2022-11-05T14:05:37.988Z,12.29
2022-11-05T14:08:12.342Z,12.33
2022-11-05T14:10:43.329Z,12.34
2022-11-05T14:13:23.620Z,12.33
2022-11-05T14:21:31.619Z,12.38
2022-11-05T14:24:19.614Z,12.43
2022-11-05T14:29:44.312Z,12.74
2022-11-05T14:35:03.904Z,12.52
2022-11-05T14:37:34.477Z,12.51
2022-11-05T14:43:02.978Z,12.44
2022-11-05T14:45:34.966Z,12.47
2022-11-05T14:48:05.248Z,12.50
2022-11-05T14:50:39.055Z,12.50
2022-11-05T14:53:22.652Z,12.48
2022-11-05T14:55:58.985Z,12.50
2022-11-05T14:58:31.175Z,12.51
2022-11-05T15:00:58.881Z,12.49
2022-11-05T15:09:13.329Z,12.55
2022-11-05T15:11:47.277Z,12.57
2022-11-05T15:14:35.266Z,12.52
2022-11-05T15:17:15.701Z,12.57
2022-11-05T15:19:43.118Z,12.60
2022-11-05T15:22:23.592Z,12.55
2022-11-05T15:24:50.393Z,12.61
2022-11-05T15:27:38.153Z,12.59
2022-11-05T15:30:15.019Z,12.63
2022-11-05T15:32:41.914Z,12.66
2022-11-05T15:35:29.694Z,12.65
2022-11-05T15:38:02.237Z,12.70
2022-11-05T15:40:32.028Z,12.71
2022-11-05T15:43:17.582Z,12.67
2022-11-05T15:45:57.200Z,12.72
2022-11-05T15:48:23.778Z,12.76
2022-11-05T15:50:50.626Z,12.75
2022-11-05T15:53:47.541Z,12.76
2022-11-05T16:01:47.220Z,12.75
2022-11-05T16:04:33.219Z,12.72
2022-11-05T16:07:08.986Z,12.78
2022-11-05T16:09:40.010Z,12.77
2022-11-05T16:17:57.573Z,12.80
2022-11-05T16:23:05.608Z,12.80
2022-11-05T16:25:43.105Z,12.80
2022-11-05T16:28:30.203Z,12.78
2022-11-05T16:31:03.857Z,12.84
2022-11-05T16:33:45.926Z,12.83
2022-11-05T16:36:13.010Z,12.83
2022-11-05T16:38:39.806Z,12.85
2022-11-05T16:41:06.718Z,12.87
2022-11-05T16:43:34.530Z,12.87
2022-11-05T16:46:02.012Z,12.87
2022-11-05T16:48:28.610Z,12.87
2022-11-05T16:50:55.311Z,12.89
2022-11-05T16:53:22.021Z,12.90
2022-11-05T16:55:48.890Z,12.91
2022-11-05T16:58:20.089Z,12.90
2022-11-05T17:00:48.285Z,12.89
2022-11-05T17:03:14.885Z,12.90
2022-11-05T17:05:41.769Z,12.93
2022-11-05T17:08:08.833Z,12.93
2022-11-05T17:10:35.755Z,12.89
2022-11-05T17:13:02.346Z,12.91
2022-11-05T17:15:33.615Z,12.95
2022-11-05T17:18:00.127Z,12.94
2022-11-05T17:23:06.546Z,12.94
2022-11-05T17:25:33.446Z,12.97
2022-11-05T17:27:59.981Z,12.98
2022-11-05T17:30:27.058Z,13.00
2022-11-05T17:32:53.943Z,13.02
2022-11-05T17:35:21.221Z,13.05
2022-11-05T17:37:48.102Z,13.07
2022-11-05T17:40:18.002Z,13.08
2022-11-05T17:42:44.643Z,13.07
2022-11-05T17:45:12.733Z,13.09
2022-11-05T17:47:40.589Z,13.11
2022-11-05T17:50:09.140Z,13.08
2022-11-05T17:52:35.870Z,13.08
2022-11-05T17:55:04.430Z,13.11
2022-11-05T17:57:30.987Z,13.11
2022-11-05T17:59:57.628Z,13.13
2022-11-05T18:02:24.396Z,13.15
2022-11-05T18:04:51.023Z,13.17
2022-11-05T18:07:17.805Z,13.19
2022-11-05T18:09:44.369Z,13.21
2022-11-05T18:12:10.925Z,13.21
2022-11-05T18:14:37.610Z,13.21
2022-11-05T18:17:04.129Z,13.19
2022-11-05T18:19:30.721Z,13.18
2022-11-05T18:21:57.397Z,13.18
2022-11-05T18:24:24.115Z,13.19
2022-11-05T18:26:50.709Z,13.19
2022-11-05T18:29:17.255Z,13.20
2022-11-05T18:31:43.834Z,13.21
2022-11-05T18:34:10.481Z,13.20
2022-11-05T18:36:37.376Z,13.20
2022-11-05T18:39:05.818Z,13.20
2022-11-05T18:41:32.715Z,13.18
2022-11-05T18:44:00.884Z,13.17
2022-11-05T18:46:56.037Z,13.13
2022-11-05T18:49:16.192Z,13.09
2022-11-05T18:51:42.792Z,13.08
2022-11-05T18:54:09.353Z,13.06
2022-11-05T18:56:36.170Z,13.05
2022-11-05T18:59:34.532Z,13.02
2022-11-05T19:01:49.549Z,12.99
2022-11-05T19:04:16.232Z,12.98
2022-11-05T19:06:42.750Z,12.96
2022-11-05T19:09:12.016Z,12.92
2022-11-05T19:11:39.795Z,12.90
2022-11-05T19:14:07.352Z,12.85
2022-11-05T19:16:34.321Z,12.83
2022-11-05T19:19:03.713Z,12.83
2022-11-05T19:21:30.501Z,12.82
2022-11-05T19:24:00.229Z,12.82
2022-11-05T19:26:28.804Z,12.79
2022-11-05T19:28:58.835Z,12.76
2022-11-05T19:31:25.935Z,12.72
2022-11-05T19:33:53.199Z,12.69
2022-11-05T19:36:21.500Z,12.65
2022-11-05T19:38:50.547Z,12.62
2022-11-05T19:41:18.455Z,12.57
2022-11-05T19:43:45.838Z,12.52
2022-11-05T19:46:15.857Z,12.48
2022-11-05T19:48:42.649Z,12.27
2022-11-05T19:51:13.208Z,12.36
2022-11-05T19:53:40.325Z,12.33
2022-11-05T19:56:09.065Z,12.31
2022-11-05T19:58:35.620Z,12.28
2022-11-05T20:01:02.555Z,12.25
2022-11-05T20:03:29.334Z,12.22
2022-11-05T20:06:02.348Z,12.18
2022-11-05T20:08:29.236Z,12.16
2022-11-05T20:10:56.045Z,12.16
2022-11-05T20:13:23.000Z,12.16
2022-11-05T20:15:49.572Z,12.16
2022-11-05T20:18:16.612Z,12.18
2022-11-05T20:20:44.459Z,12.18
2022-11-05T20:23:11.585Z,12.17
2022-11-05T20:25:38.600Z,12.16
2022-11-05T20:28:05.637Z,12.16
2022-11-05T20:30:32.185Z,12.14
2022-11-05T20:32:58.953Z,12.14
2022-11-05T20:35:25.538Z,12.12
2022-11-05T20:37:54.117Z,12.12
2022-11-05T20:40:20.990Z,12.11
2022-11-05T20:42:47.502Z,12.08
2022-11-05T20:45:14.072Z,12.06
2022-11-05T20:47:40.670Z,12.03
2022-11-05T20:50:08.116Z,12.02
2022-11-05T20:52:34.668Z,11.99
2022-11-05T20:55:02.231Z,11.95
2022-11-05T20:57:29.041Z,11.93
2022-11-05T20:59:55.606Z,11.90
2022-11-05T21:02:22.232Z,11.86
2022-11-05T21:04:49.106Z,11.83
2022-11-05T21:07:15.705Z,11.78
2022-11-05T21:09:43.139Z,11.75
2022-11-05T21:12:10.445Z,11.71
2022-11-05T21:14:41.163Z,11.68
2022-11-05T21:17:10.172Z,11.65
2022-11-05T21:19:36.730Z,11.61
2022-11-05T21:22:05.002Z,11.60
2022-11-05T21:24:33.118Z,11.60
2022-11-05T21:27:00.295Z,11.61
2022-11-05T21:29:26.992Z,11.62
2022-11-05T21:31:53.909Z,11.64
2022-11-05T21:34:20.511Z,11.65
2022-11-05T21:36:47.334Z,11.64
2022-11-05T21:39:14.136Z,11.65
2022-11-05T21:41:40.807Z,11.67
2022-11-05T21:44:07.320Z,11.64
2022-11-05T21:46:33.901Z,11.63
2022-11-05T21:49:00.472Z,11.59
2022-11-05T21:51:46.945Z,11.59
2022-11-05T21:54:33.407Z,11.57
2022-11-05T21:57:19.999Z,11.55
2022-11-05T21:59:51.714Z,11.54
2022-11-05T22:02:21.547Z,11.55
2022-11-05T22:04:51.688Z,11.55
2022-11-05T22:07:21.240Z,11.57
2022-11-05T22:09:48.164Z,11.57
2022-11-05T22:12:15.080Z,11.57
2022-11-05T22:14:42.292Z,11.60
2022-11-05T22:17:09.877Z,11.62
2022-11-05T22:19:36.939Z,11.65
2022-11-05T22:22:04.943Z,11.67
2022-11-05T22:24:32.210Z,11.69
2022-11-05T22:27:00.470Z,11.72
2022-11-05T22:29:27.487Z,11.74
2022-11-05T22:31:54.536Z,11.75
2022-11-05T22:34:21.229Z,11.76
2022-11-05T22:36:48.011Z,11.77
2022-11-05T22:39:15.592Z,11.78
2022-11-05T22:41:43.066Z,11.77
2022-11-05T22:44:10.695Z,11.77
2022-11-05T22:46:41.381Z,11.75
2022-11-05T22:49:08.277Z,11.74
2022-11-05T22:51:36.667Z,11.72
2022-11-05T22:54:04.346Z,11.68
2022-11-05T22:56:35.249Z,11.65
2022-11-05T22:59:01.856Z,11.63
2022-11-05T23:01:29.173Z,11.61
2022-11-05T23:03:57.185Z,11.61
2022-11-05T23:06:46.624Z,11.60
2022-11-05T23:09:41.390Z,11.56
2022-11-05T23:12:19.861Z,11.53
2022-11-05T23:14:46.439Z,11.49
2022-11-05T23:17:32.954Z,11.44
2022-11-05T23:20:19.574Z,11.40
2022-11-05T23:23:06.165Z,11.34
2022-11-05T23:25:32.734Z,11.28
2022-11-05T23:27:59.464Z,11.24
2022-11-05T23:30:27.206Z,11.19
2022-11-05T23:32:54.140Z,11.11
2022-11-05T23:35:40.640Z,11.03
2022-11-05T23:38:27.152Z,10.96
2022-11-05T23:41:13.655Z,10.88
2022-11-05T23:44:00.163Z,10.79
2022-11-05T23:46:46.610Z,10.70
2022-11-05T23:49:13.215Z,10.62
2022-11-05T23:51:39.781Z,10.57
2022-11-05T23:54:06.420Z,10.49
2022-11-05T23:56:33.218Z,10.43
2022-11-05T23:58:59.802Z,10.37
